sensor_id;sensor_type;location;lat;lon;timestamp;pressure;altitude;pressure_sealevel;temperature;humidity
58919;BME280;44704;50.122;19.932;2022-08-19T00:01:53;97920.63;;;21.42;74.70
58919;BME280;44704;50.122;19.932;2022-08-19T00:04:24;97925.09;;;21.38;74.86
58919;BME280;44704;50.122;19.932;2022-08-19T00:06:52;97924.77;;;21.36;74.92
58919;BME280;44704;50.122;19.932;2022-08-19T00:09:20;97917.76;;;21.34;75.06
58919;BME280;44704;50.122;19.932;2022-08-19T00:11:50;97915.21;;;21.32;75.08
58919;BME280;44704;50.122;19.932;2022-08-19T00:14:17;97916.36;;;21.29;75.12
58919;BME280;44704;50.122;19.932;2022-08-19T00:16:46;97914.38;;;21.27;75.28
58919;BME280;44704;50.122;19.932;2022-08-19T00:19:15;97912.61;;;21.26;75.36
58919;BME280;44704;50.122;19.932;2022-08-19T00:21:42;97909.86;;;21.25;75.38
58919;BME280;44704;50.122;19.932;2022-08-19T00:24:10;97914.52;;;21.23;75.32
58919;BME280;44704;50.122;19.932;2022-08-19T00:26:38;97914.36;;;21.21;75.53
58919;BME280;44704;50.122;19.932;2022-08-19T00:29:07;97919.18;;;21.19;75.67
58919;BME280;44704;50.122;19.932;2022-08-19T00:31:35;97917.52;;;21.17;75.62
58919;BME280;44704;50.122;19.932;2022-08-19T00:34:02;97917.86;;;21.16;75.72
58919;BME280;44704;50.122;19.932;2022-08-19T00:36:29;97920.37;;;21.14;75.79
58919;BME280;44704;50.122;19.932;2022-08-19T00:38:56;97919.52;;;21.11;75.92
58919;BME280;44704;50.122;19.932;2022-08-19T00:41:24;97917.31;;;21.07;75.80
58919;BME280;44704;50.122;19.932;2022-08-19T00:46:29;97917.91;;;21.02;75.95
58919;BME280;44704;50.122;19.932;2022-08-19T00:48:56;97920.51;;;21.01;76.04
58919;BME280;44704;50.122;19.932;2022-08-19T00:51:26;97919.02;;;20.97;76.22
58919;BME280;44704;50.122;19.932;2022-08-19T00:53:55;97918.83;;;20.95;76.14
58919;BME280;44704;50.122;19.932;2022-08-19T00:56:23;97921.08;;;20.92;76.32
58919;BME280;44704;50.122;19.932;2022-08-19T00:58:50;97916.06;;;20.90;76.50
58919;BME280;44704;50.122;19.932;2022-08-19T01:01:17;97917.53;;;20.87;76.56
58919;BME280;44704;50.122;19.932;2022-08-19T01:03:44;97919.11;;;20.84;76.61
58919;BME280;44704;50.122;19.932;2022-08-19T01:06:10;97915.19;;;20.82;76.63
58919;BME280;44704;50.122;19.932;2022-08-19T01:08:37;97909.45;;;20.80;76.90
58919;BME280;44704;50.122;19.932;2022-08-19T01:11:05;97906.88;;;20.77;76.87
58919;BME280;44704;50.122;19.932;2022-08-19T01:13:36;97910.13;;;20.74;76.88
58919;BME280;44704;50.122;19.932;2022-08-19T01:16:07;97902.88;;;20.71;76.85
58919;BME280;44704;50.122;19.932;2022-08-19T01:18:39;97903.88;;;20.69;77.05
58919;BME280;44704;50.122;19.932;2022-08-19T01:23:50;97893.38;;;20.61;77.19
58919;BME280;44704;50.122;19.932;2022-08-19T01:26:21;97884.36;;;20.57;77.36
58919;BME280;44704;50.122;19.932;2022-08-19T01:28:54;97883.01;;;20.54;77.69
58919;BME280;44704;50.122;19.932;2022-08-19T01:31:25;97880.61;;;20.51;77.76
58919;BME280;44704;50.122;19.932;2022-08-19T01:33:54;97880.08;;;20.48;77.84
58919;BME280;44704;50.122;19.932;2022-08-19T01:36:30;97880.06;;;20.46;77.92
58919;BME280;44704;50.122;19.932;2022-08-19T01:38:58;97871.63;;;20.43;78.12
58919;BME280;44704;50.122;19.932;2022-08-19T01:41:26;97871.58;;;20.40;78.33
58919;BME280;44704;50.122;19.932;2022-08-19T01:43:54;97873.60;;;20.40;78.30
58919;BME280;44704;50.122;19.932;2022-08-19T01:46:20;97881.38;;;20.39;78.41
58919;BME280;44704;50.122;19.932;2022-08-19T01:48:48;97880.34;;;20.38;78.46
58919;BME280;44704;50.122;19.932;2022-08-19T01:51:14;97878.42;;;20.38;78.44
58919;BME280;44704;50.122;19.932;2022-08-19T01:53:41;97882.02;;;20.34;78.53
58919;BME280;44704;50.122;19.932;2022-08-19T01:56:08;97882.27;;;20.29;78.66
58919;BME280;44704;50.122;19.932;2022-08-19T01:58:41;97882.64;;;20.25;78.61
58919;BME280;44704;50.122;19.932;2022-08-19T02:01:12;97883.38;;;20.20;78.75
58919;BME280;44704;50.122;19.932;2022-08-19T02:03:40;97892.21;;;20.17;78.87
58919;BME280;44704;50.122;19.932;2022-08-19T02:06:07;97891.61;;;20.15;79.07
58919;BME280;44704;50.122;19.932;2022-08-19T02:08:36;97891.05;;;20.09;78.94
58919;BME280;44704;50.122;19.932;2022-08-19T02:11:04;97888.69;;;20.01;78.90
58919;BME280;44704;50.122;19.932;2022-08-19T02:13:31;97887.45;;;19.96;79.12
58919;BME280;44704;50.122;19.932;2022-08-19T02:15:59;97885.80;;;19.94;79.22
58919;BME280;44704;50.122;19.932;2022-08-19T02:18:25;97878.95;;;19.92;79.33
58919;BME280;44704;50.122;19.932;2022-08-19T02:20:53;97874.40;;;19.89;79.35
58919;BME280;44704;50.122;19.932;2022-08-19T02:23:20;97865.02;;;19.86;79.59
58919;BME280;44704;50.122;19.932;2022-08-19T02:25:48;97871.58;;;19.83;79.84
58919;BME280;44704;50.122;19.932;2022-08-19T02:28:15;97869.49;;;19.83;79.89
58919;BME280;44704;50.122;19.932;2022-08-19T02:30:42;97870.02;;;19.82;80.07
58919;BME280;44704;50.122;19.932;2022-08-19T02:33:09;97862.55;;;19.80;80.09
58919;BME280;44704;50.122;19.932;2022-08-19T02:35:36;97867.23;;;19.79;80.31
58919;BME280;44704;50.122;19.932;2022-08-19T02:38:03;97863.52;;;19.77;80.43
58919;BME280;44704;50.122;19.932;2022-08-19T02:41:01;97867.02;;;19.74;80.42
58919;BME280;44704;50.122;19.932;2022-08-19T02:43:31;97871.72;;;19.71;80.53
58919;BME280;44704;50.122;19.932;2022-08-19T02:45:58;97875.66;;;19.69;80.64
58919;BME280;44704;50.122;19.932;2022-08-19T02:48:26;97879.45;;;19.67;80.57
58919;BME280;44704;50.122;19.932;2022-08-19T02:50:53;97877.68;;;19.65;80.70
58919;BME280;44704;50.122;19.932;2022-08-19T02:53:26;97869.83;;;19.64;80.71
58919;BME280;44704;50.122;19.932;2022-08-19T02:55:53;97869.21;;;19.62;80.81
58919;BME280;44704;50.122;19.932;2022-08-19T02:58:21;97873.05;;;19.59;80.85
58919;BME280;44704;50.122;19.932;2022-08-19T03:00:53;97878.49;;;19.56;81.02
58919;BME280;44704;50.122;19.932;2022-08-19T03:03:20;97884.30;;;19.54;81.21
58919;BME280;44704;50.122;19.932;2022-08-19T03:05:47;97889.97;;;19.50;81.21
58919;BME280;44704;50.122;19.932;2022-08-19T03:08:14;97894.44;;;19.46;81.29
58919;BME280;44704;50.122;19.932;2022-08-19T03:10:43;97896.54;;;19.44;81.38
58919;BME280;44704;50.122;19.932;2022-08-19T03:13:13;97895.29;;;19.43;81.49
58919;BME280;44704;50.122;19.932;2022-08-19T03:15:43;97895.29;;;19.42;81.46
58919;BME280;44704;50.122;19.932;2022-08-19T03:18:10;97895.87;;;19.41;81.77
58919;BME280;44704;50.122;19.932;2022-08-19T03:20:45;97902.16;;;19.37;81.84
58919;BME280;44704;50.122;19.932;2022-08-19T03:23:14;97898.39;;;19.33;81.86
58919;BME280;44704;50.122;19.932;2022-08-19T03:25:44;97900.76;;;19.31;82.04
58919;BME280;44704;50.122;19.932;2022-08-19T03:28:13;97898.63;;;19.30;82.05
58919;BME280;44704;50.122;19.932;2022-08-19T03:30:44;97892.61;;;19.29;82.25
58919;BME280;44704;50.122;19.932;2022-08-19T03:33:23;97895.61;;;19.29;82.26
58919;BME280;44704;50.122;19.932;2022-08-19T03:36:15;97893.52;;;19.29;82.36
58919;BME280;44704;50.122;19.932;2022-08-19T03:38:51;97895.27;;;19.27;82.52
58919;BME280;44704;50.122;19.932;2022-08-19T03:41:21;97898.00;;;19.27;82.63
58919;BME280;44704;50.122;19.932;2022-08-19T03:43:49;97900.11;;;19.26;82.75
58919;BME280;44704;50.122;19.932;2022-08-19T03:46:19;97899.88;;;19.26;82.79
58919;BME280;44704;50.122;19.932;2022-08-19T03:48:51;97900.21;;;19.27;83.05
58919;BME280;44704;50.122;19.932;2022-08-19T03:51:30;97899.48;;;19.25;83.01
58919;BME280;44704;50.122;19.932;2022-08-19T03:54:00;97901.45;;;19.23;83.16
58919;BME280;44704;50.122;19.932;2022-08-19T03:56:27;97903.34;;;19.23;83.32
58919;BME280;44704;50.122;19.932;2022-08-19T03:58:57;97905.83;;;19.25;83.47
58919;BME280;44704;50.122;19.932;2022-08-19T04:01:26;97906.84;;;19.26;83.42
58919;BME280;44704;50.122;19.932;2022-08-19T04:03:57;97906.21;;;19.29;83.49
58919;BME280;44704;50.122;19.932;2022-08-19T04:06:27;97896.00;;;19.31;83.33
58919;BME280;44704;50.122;19.932;2022-08-19T04:08:56;97895.21;;;19.32;83.29
58919;BME280;44704;50.122;19.932;2022-08-19T04:11:28;97891.30;;;19.31;83.25
58919;BME280;44704;50.122;19.932;2022-08-19T04:13:56;97894.75;;;19.32;83.18
58919;BME280;44704;50.122;19.932;2022-08-19T04:16:25;97892.29;;;19.33;83.31
58919;BME280;44704;50.122;19.932;2022-08-19T04:19:01;97887.70;;;19.37;83.56
58919;BME280;44704;50.122;19.932;2022-08-19T04:21:28;97882.98;;;19.39;83.37
58919;BME280;44704;50.122;19.932;2022-08-19T04:23:56;97881.57;;;19.40;83.42
58919;BME280;44704;50.122;19.932;2022-08-19T04:26:27;97893.07;;;19.42;83.30
58919;BME280;44704;50.122;19.932;2022-08-19T04:28:55;97906.02;;;19.43;83.57
58919;BME280;44704;50.122;19.932;2022-08-19T04:31:23;97898.98;;;19.46;83.50
58919;BME280;44704;50.122;19.932;2022-08-19T04:33:55;97899.13;;;19.49;83.44
58919;BME280;44704;50.122;19.932;2022-08-19T04:36:28;97890.30;;;19.50;83.41
58919;BME280;44704;50.122;19.932;2022-08-19T04:39:00;97890.90;;;19.53;83.36
58919;BME280;44704;50.122;19.932;2022-08-19T04:41:27;97900.42;;;19.56;83.49
58919;BME280;44704;50.122;19.932;2022-08-19T04:44:09;97916.24;;;19.60;83.54
58919;BME280;44704;50.122;19.932;2022-08-19T04:46:37;97921.83;;;19.61;83.26
58919;BME280;44704;50.122;19.932;2022-08-19T04:49:05;97925.79;;;19.60;82.66
58919;BME280;44704;50.122;19.932;2022-08-19T04:51:33;97932.54;;;19.58;82.45
58919;BME280;44704;50.122;19.932;2022-08-19T04:54:03;97931.42;;;19.56;82.63
58919;BME280;44704;50.122;19.932;2022-08-19T04:56:30;97932.89;;;19.57;82.85
58919;BME280;44704;50.122;19.932;2022-08-19T04:58:57;97938.76;;;19.60;83.01
58919;BME280;44704;50.122;19.932;2022-08-19T05:01:32;97948.45;;;19.66;83.16
58919;BME280;44704;50.122;19.932;2022-08-19T05:04:01;97952.04;;;19.73;83.22
58919;BME280;44704;50.122;19.932;2022-08-19T05:06:31;97958.20;;;19.81;83.22
58919;BME280;44704;50.122;19.932;2022-08-19T05:09:04;97953.48;;;19.89;83.22
58919;BME280;44704;50.122;19.932;2022-08-19T05:11:34;97948.23;;;19.95;83.10
58919;BME280;44704;50.122;19.932;2022-08-19T05:14:01;97952.56;;;20.02;83.26
58919;BME280;44704;50.122;19.932;2022-08-19T05:16:28;97953.50;;;20.10;83.22
58919;BME280;44704;50.122;19.932;2022-08-19T05:18:55;97956.00;;;20.18;82.90
58919;BME280;44704;50.122;19.932;2022-08-19T05:21:36;97949.17;;;20.25;82.92
58919;BME280;44704;50.122;19.932;2022-08-19T05:24:17;97952.81;;;20.32;82.74
58919;BME280;44704;50.122;19.932;2022-08-19T05:26:46;97952.95;;;20.37;82.51
58919;BME280;44704;50.122;19.932;2022-08-19T05:29:18;97955.64;;;20.43;82.39
58919;BME280;44704;50.122;19.932;2022-08-19T05:31:46;97955.49;;;20.50;82.49
58919;BME280;44704;50.122;19.932;2022-08-19T05:34:19;97955.27;;;20.56;82.42
58919;BME280;44704;50.122;19.932;2022-08-19T05:36:52;97955.52;;;20.61;82.01
58919;BME280;44704;50.122;19.932;2022-08-19T05:39:25;97950.95;;;20.66;81.89
58919;BME280;44704;50.122;19.932;2022-08-19T05:41:55;97944.32;;;20.73;81.91
58919;BME280;44704;50.122;19.932;2022-08-19T05:44:28;97938.72;;;20.82;81.84
58919;BME280;44704;50.122;19.932;2022-08-19T05:47:03;97943.64;;;20.91;81.61
58919;BME280;44704;50.122;19.932;2022-08-19T05:49:32;97946.67;;;20.98;81.34
58919;BME280;44704;50.122;19.932;2022-08-19T05:52:09;97945.91;;;21.06;81.22
58919;BME280;44704;50.122;19.932;2022-08-19T05:54:38;97949.52;;;21.16;80.98
58919;BME280;44704;50.122;19.932;2022-08-19T05:57:09;97951.85;;;21.26;80.87
58919;BME280;44704;50.122;19.932;2022-08-19T05:59:40;97949.95;;;21.35;80.60
58919;BME280;44704;50.122;19.932;2022-08-19T06:02:08;97945.32;;;21.45;80.06
58919;BME280;44704;50.122;19.932;2022-08-19T06:04:36;97941.02;;;21.53;79.97
58919;BME280;44704;50.122;19.932;2022-08-19T06:07:05;97934.86;;;21.61;79.88
58919;BME280;44704;50.122;19.932;2022-08-19T06:09:33;97931.48;;;21.69;79.86
58919;BME280;44704;50.122;19.932;2022-08-19T06:12:01;97932.00;;;21.78;79.38
58919;BME280;44704;50.122;19.932;2022-08-19T06:14:31;97942.08;;;21.86;78.83
58919;BME280;44704;50.122;19.932;2022-08-19T06:17:01;97944.59;;;21.95;78.59
58919;BME280;44704;50.122;19.932;2022-08-19T06:19:29;97944.15;;;22.04;78.56
58919;BME280;44704;50.122;19.932;2022-08-19T06:21:59;97949.52;;;22.14;78.38
58919;BME280;44704;50.122;19.932;2022-08-19T06:24:29;97950.30;;;22.26;78.00
58919;BME280;44704;50.122;19.932;2022-08-19T06:27:03;97951.46;;;22.37;77.60
58919;BME280;44704;50.122;19.932;2022-08-19T06:29:33;97958.45;;;22.47;77.24
58919;BME280;44704;50.122;19.932;2022-08-19T06:32:03;97961.66;;;22.58;76.98
58919;BME280;44704;50.122;19.932;2022-08-19T06:34:32;97959.95;;;22.67;76.75
58919;BME280;44704;50.122;19.932;2022-08-19T06:37:02;97954.78;;;22.77;76.35
58919;BME280;44704;50.122;19.932;2022-08-19T06:39:34;97952.45;;;22.87;76.14
58919;BME280;44704;50.122;19.932;2022-08-19T06:42:04;97952.45;;;22.98;75.91
58919;BME280;44704;50.122;19.932;2022-08-19T06:44:36;97953.46;;;23.09;75.25
58919;BME280;44704;50.122;19.932;2022-08-19T06:47:04;97961.41;;;23.20;74.90
58919;BME280;44704;50.122;19.932;2022-08-19T06:49:33;97962.30;;;23.31;74.45
58919;BME280;44704;50.122;19.932;2022-08-19T06:52:03;97959.52;;;23.41;74.23
58919;BME280;44704;50.122;19.932;2022-08-19T06:54:30;97964.71;;;23.52;74.21
58919;BME280;44704;50.122;19.932;2022-08-19T06:57:00;97964.29;;;23.63;74.08
58919;BME280;44704;50.122;19.932;2022-08-19T06:59:33;97964.73;;;23.74;73.74
58919;BME280;44704;50.122;19.932;2022-08-19T07:02:03;97968.46;;;23.84;73.58
58919;BME280;44704;50.122;19.932;2022-08-19T07:04:35;97974.34;;;23.96;73.51
58919;BME280;44704;50.122;19.932;2022-08-19T07:07:11;97980.64;;;24.09;73.02
58919;BME280;44704;50.122;19.932;2022-08-19T07:09:41;97982.14;;;24.20;72.53
58919;BME280;44704;50.122;19.932;2022-08-19T07:12:11;97985.31;;;24.32;72.21
58919;BME280;44704;50.122;19.932;2022-08-19T07:14:41;97985.73;;;24.45;71.54
58919;BME280;44704;50.122;19.932;2022-08-19T07:17:10;97979.11;;;24.57;71.30
58919;BME280;44704;50.122;19.932;2022-08-19T07:19:38;97976.19;;;24.67;70.97
58919;BME280;44704;50.122;19.932;2022-08-19T07:22:07;97974.48;;;24.79;70.95
58919;BME280;44704;50.122;19.932;2022-08-19T07:24:47;97976.52;;;24.91;70.52
58919;BME280;44704;50.122;19.932;2022-08-19T07:27:35;97970.35;;;25.06;69.54
58919;BME280;44704;50.122;19.932;2022-08-19T07:30:03;97969.73;;;25.17;69.49
58919;BME280;44704;50.122;19.932;2022-08-19T07:32:31;97970.27;;;25.30;69.32
58919;BME280;44704;50.122;19.932;2022-08-19T07:35:00;97970.45;;;25.42;68.82
58919;BME280;44704;50.122;19.932;2022-08-19T07:37:30;97979.52;;;25.52;68.30
58919;BME280;44704;50.122;19.932;2022-08-19T07:39:57;97986.30;;;25.62;67.28
58919;BME280;44704;50.122;19.932;2022-08-19T07:42:24;97988.64;;;25.72;67.03
58919;BME280;44704;50.122;19.932;2022-08-19T07:44:51;97982.60;;;25.82;66.57
58919;BME280;44704;50.122;19.932;2022-08-19T07:47:17;97985.40;;;25.94;66.57
58919;BME280;44704;50.122;19.932;2022-08-19T07:49:44;97987.46;;;26.05;66.05
58919;BME280;44704;50.122;19.932;2022-08-19T07:52:11;97985.88;;;26.15;65.18
58919;BME280;44704;50.122;19.932;2022-08-19T07:54:39;97989.63;;;26.24;64.26
58919;BME280;44704;50.122;19.932;2022-08-19T07:57:08;97988.52;;;26.35;64.37
58919;BME280;44704;50.122;19.932;2022-08-19T07:59:35;97992.11;;;26.45;64.08
58919;BME280;44704;50.122;19.932;2022-08-19T08:02:05;97994.67;;;26.55;63.58
58919;BME280;44704;50.122;19.932;2022-08-19T08:04:33;97999.93;;;26.67;63.48
58919;BME280;44704;50.122;19.932;2022-08-19T08:07:14;98004.33;;;26.78;62.72
58919;BME280;44704;50.122;19.932;2022-08-19T08:09:54;98007.70;;;26.90;62.51
58919;BME280;44704;50.122;19.932;2022-08-19T08:12:28;98007.30;;;27.03;62.41
58919;BME280;44704;50.122;19.932;2022-08-19T08:14:59;98006.66;;;27.15;61.49
58919;BME280;44704;50.122;19.932;2022-08-19T08:17:30;98006.92;;;27.26;60.79
58919;BME280;44704;50.122;19.932;2022-08-19T08:19:57;98010.73;;;27.40;61.04
58919;BME280;44704;50.122;19.932;2022-08-19T08:22:24;98017.48;;;27.53;60.95
58919;BME280;44704;50.122;19.932;2022-08-19T08:25:08;98010.57;;;27.68;59.94
58919;BME280;44704;50.122;19.932;2022-08-19T08:27:41;98008.11;;;27.81;59.12
58919;BME280;44704;50.122;19.932;2022-08-19T08:30:13;98005.58;;;27.94;58.76
58919;BME280;44704;50.122;19.932;2022-08-19T08:32:41;98010.29;;;28.07;58.97
58919;BME280;44704;50.122;19.932;2022-08-19T08:35:11;98009.98;;;28.21;58.40
58919;BME280;44704;50.122;19.932;2022-08-19T08:37:40;98010.83;;;28.34;58.03
58919;BME280;44704;50.122;19.932;2022-08-19T08:46:30;98009.41;;;28.85;56.89
58919;BME280;44704;50.122;19.932;2022-08-19T08:49:02;98011.37;;;28.99;56.22
58919;BME280;44704;50.122;19.932;2022-08-19T08:51:42;98009.88;;;29.12;55.78
58919;BME280;44704;50.122;19.932;2022-08-19T08:54:14;98007.31;;;29.22;54.83
58919;BME280;44704;50.122;19.932;2022-08-19T08:56:45;98006.23;;;29.32;54.73
58919;BME280;44704;50.122;19.932;2022-08-19T08:59:28;98009.82;;;29.43;54.56
58919;BME280;44704;50.122;19.932;2022-08-19T09:01:59;98006.30;;;29.56;54.14
58919;BME280;44704;50.122;19.932;2022-08-19T09:04:27;98002.30;;;29.71;53.39
58919;BME280;44704;50.122;19.932;2022-08-19T09:10:23;98004.17;;;30.03;52.33
58919;BME280;44704;50.122;19.932;2022-08-19T09:15:52;97992.44;;;30.28;50.85
58919;BME280;44704;50.122;19.932;2022-08-19T09:18:21;97994.67;;;30.40;50.12
58919;BME280;44704;50.122;19.932;2022-08-19T09:20:48;97996.05;;;30.53;50.40
58919;BME280;44704;50.122;19.932;2022-08-19T09:23:15;97992.13;;;30.65;50.39
58919;BME280;44704;50.122;19.932;2022-08-19T09:25:42;97989.72;;;30.79;49.77
58919;BME280;44704;50.122;19.932;2022-08-19T09:28:09;97987.77;;;30.95;49.75
58919;BME280;44704;50.122;19.932;2022-08-19T09:30:40;97986.08;;;31.10;49.43
58919;BME280;44704;50.122;19.932;2022-08-19T09:33:08;97979.65;;;31.26;49.23
58919;BME280;44704;50.122;19.932;2022-08-19T09:35:36;97976.96;;;31.42;48.81
58919;BME280;44704;50.122;19.932;2022-08-19T09:38:03;97979.06;;;31.56;48.80
58919;BME280;44704;50.122;19.932;2022-08-19T09:40:30;97972.02;;;31.68;46.43
58919;BME280;44704;50.122;19.932;2022-08-19T09:42:58;97969.63;;;31.78;46.37
58919;BME280;44704;50.122;19.932;2022-08-19T09:45:29;97971.58;;;31.92;46.88
58919;BME280;44704;50.122;19.932;2022-08-19T09:47:57;97970.16;;;32.04;46.30
58919;BME280;44704;50.122;19.932;2022-08-19T09:50:23;97968.10;;;32.12;45.88
58919;BME280;44704;50.122;19.932;2022-08-19T09:52:51;97967.21;;;32.24;45.44
58919;BME280;44704;50.122;19.932;2022-08-19T09:55:19;97962.78;;;32.31;44.49
58919;BME280;44704;50.122;19.932;2022-08-19T09:57:46;97962.86;;;32.43;44.96
58919;BME280;44704;50.122;19.932;2022-08-19T10:00:13;97965.19;;;32.57;45.06
58919;BME280;44704;50.122;19.932;2022-08-19T10:02:40;97964.23;;;32.70;45.10
58919;BME280;44704;50.122;19.932;2022-08-19T10:05:07;97956.94;;;32.85;45.09
58919;BME280;44704;50.122;19.932;2022-08-19T10:07:48;97956.90;;;33.01;43.71
58919;BME280;44704;50.122;19.932;2022-08-19T10:10:15;97958.73;;;33.13;43.88
58919;BME280;44704;50.122;19.932;2022-08-19T10:12:42;97954.66;;;33.24;44.24
58919;BME280;44704;50.122;19.932;2022-08-19T10:15:13;97958.96;;;33.36;44.28
58919;BME280;44704;50.122;19.932;2022-08-19T10:17:41;97962.12;;;33.51;43.78
58919;BME280;44704;50.122;19.932;2022-08-19T10:20:09;97961.00;;;33.63;43.29
58919;BME280;44704;50.122;19.932;2022-08-19T10:22:36;97956.63;;;33.72;41.81
58919;BME280;44704;50.122;19.932;2022-08-19T10:25:05;97954.88;;;33.81;41.58
58919;BME280;44704;50.122;19.932;2022-08-19T10:27:31;97950.85;;;33.92;41.28
58919;BME280;44704;50.122;19.932;2022-08-19T10:29:58;97954.84;;;33.98;40.59
58919;BME280;44704;50.122;19.932;2022-08-19T10:32:25;97950.04;;;34.04;40.87
58919;BME280;44704;50.122;19.932;2022-08-19T10:34:53;97952.96;;;34.12;40.07
58919;BME280;44704;50.122;19.932;2022-08-19T10:37:20;97952.60;;;34.17;39.60
58919;BME280;44704;50.122;19.932;2022-08-19T10:39:48;97945.00;;;34.21;39.56
58919;BME280;44704;50.122;19.932;2022-08-19T10:42:15;97942.38;;;34.26;39.78
58919;BME280;44704;50.122;19.932;2022-08-19T10:44:46;97946.92;;;34.33;39.94
58919;BME280;44704;50.122;19.932;2022-08-19T10:47:14;97945.48;;;34.41;39.76
58919;BME280;44704;50.122;19.932;2022-08-19T10:49:42;97949.37;;;34.49;39.06
58919;BME280;44704;50.122;19.932;2022-08-19T10:52:23;97946.43;;;34.51;37.95
58919;BME280;44704;50.122;19.932;2022-08-19T10:55:05;97948.06;;;34.50;38.12
58919;BME280;44704;50.122;19.932;2022-08-19T10:57:46;97946.97;;;34.54;38.62
58919;BME280;44704;50.122;19.932;2022-08-19T11:00:13;97948.46;;;34.66;38.19
58919;BME280;44704;50.122;19.932;2022-08-19T11:02:42;97946.33;;;34.73;38.41
58919;BME280;44704;50.122;19.932;2022-08-19T11:05:09;97947.80;;;34.79;37.97
58919;BME280;44704;50.122;19.932;2022-08-19T11:07:39;97939.31;;;34.87;37.46
58919;BME280;44704;50.122;19.932;2022-08-19T11:10:11;97937.74;;;34.97;37.56
58919;BME280;44704;50.122;19.932;2022-08-19T11:12:42;97937.76;;;35.09;37.40
58919;BME280;44704;50.122;19.932;2022-08-19T11:15:09;97932.48;;;35.20;36.95
58919;BME280;44704;50.122;19.932;2022-08-19T11:17:38;97929.17;;;35.31;36.70
58919;BME280;44704;50.122;19.932;2022-08-19T11:20:13;97927.10;;;35.42;37.01
58919;BME280;44704;50.122;19.932;2022-08-19T11:22:41;97924.70;;;35.51;36.94
58919;BME280;44704;50.122;19.932;2022-08-19T11:25:10;97921.34;;;35.60;36.22
58919;BME280;44704;50.122;19.932;2022-08-19T11:27:39;97921.64;;;35.66;35.97
58919;BME280;44704;50.122;19.932;2022-08-19T11:30:10;97920.95;;;35.71;35.48
58919;BME280;44704;50.122;19.932;2022-08-19T11:32:38;97919.64;;;35.73;35.58
58919;BME280;44704;50.122;19.932;2022-08-19T11:35:05;97919.66;;;35.78;35.55
58919;BME280;44704;50.122;19.932;2022-08-19T11:37:32;97920.13;;;35.84;35.32
58919;BME280;44704;50.122;19.932;2022-08-19T11:40:06;97919.14;;;35.90;35.16
58919;BME280;44704;50.122;19.932;2022-08-19T11:42:33;97911.39;;;35.99;35.33
58919;BME280;44704;50.122;19.932;2022-08-19T11:45:14;97909.94;;;36.08;35.42
58919;BME280;44704;50.122;19.932;2022-08-19T11:47:41;97907.02;;;36.13;34.69
58919;BME280;44704;50.122;19.932;2022-08-19T11:50:08;97902.73;;;36.18;35.10
58919;BME280;44704;50.122;19.932;2022-08-19T11:52:36;97902.64;;;36.25;35.85
58919;BME280;44704;50.122;19.932;2022-08-19T11:55:02;97903.15;;;36.28;35.67
58919;BME280;44704;50.122;19.932;2022-08-19T11:57:29;97905.20;;;36.31;35.16
58919;BME280;44704;50.122;19.932;2022-08-19T12:03:47;97907.90;;;36.44;35.60
58919;BME280;44704;50.122;19.932;2022-08-19T12:06:17;97913.66;;;36.47;35.11
58919;BME280;44704;50.122;19.932;2022-08-19T12:08:46;97912.78;;;36.51;35.00
58919;BME280;44704;50.122;19.932;2022-08-19T12:11:14;97913.71;;;36.58;34.93
58919;BME280;44704;50.122;19.932;2022-08-19T12:13:42;97914.52;;;36.63;34.11
58919;BME280;44704;50.122;19.932;2022-08-19T12:16:15;97916.91;;;36.65;34.02
58919;BME280;44704;50.122;19.932;2022-08-19T12:18:44;97914.68;;;36.67;34.00
58919;BME280;44704;50.122;19.932;2022-08-19T12:21:14;97909.98;;;36.69;34.27
58919;BME280;44704;50.122;19.932;2022-08-19T12:23:42;97907.89;;;36.73;34.69
58919;BME280;44704;50.122;19.932;2022-08-19T12:26:14;97907.77;;;36.78;35.05
58919;BME280;44704;50.122;19.932;2022-08-19T12:28:42;97906.70;;;36.83;33.92
58919;BME280;44704;50.122;19.932;2022-08-19T12:31:10;97911.60;;;36.85;33.67
58919;BME280;44704;50.122;19.932;2022-08-19T12:33:41;97908.73;;;36.87;33.70
58919;BME280;44704;50.122;19.932;2022-08-19T12:36:11;97908.12;;;36.90;33.14
58919;BME280;44704;50.122;19.932;2022-08-19T12:38:39;97910.19;;;36.91;32.80
58919;BME280;44704;50.122;19.932;2022-08-19T12:41:10;97908.80;;;36.92;32.68
58919;BME280;44704;50.122;19.932;2022-08-19T12:43:39;97907.77;;;36.94;32.64
58919;BME280;44704;50.122;19.932;2022-08-19T12:46:07;97903.25;;;36.97;32.89
58919;BME280;44704;50.122;19.932;2022-08-19T12:48:34;97902.41;;;36.99;32.04
58919;BME280;44704;50.122;19.932;2022-08-19T12:51:07;97900.29;;;37.03;32.03
58919;BME280;44704;50.122;19.932;2022-08-19T12:53:34;97894.95;;;37.02;31.33
58919;BME280;44704;50.122;19.932;2022-08-19T12:56:02;97891.86;;;37.03;31.69
58919;BME280;44704;50.122;19.932;2022-08-19T12:58:29;97890.69;;;37.09;31.81
58919;BME280;44704;50.122;19.932;2022-08-19T13:00:56;97892.14;;;37.13;32.16
58919;BME280;44704;50.122;19.932;2022-08-19T13:03:24;97889.92;;;37.23;32.77
58919;BME280;44704;50.122;19.932;2022-08-19T13:05:55;97891.77;;;37.32;32.39
58919;BME280;44704;50.122;19.932;2022-08-19T13:08:22;97893.73;;;37.34;32.41
58919;BME280;44704;50.122;19.932;2022-08-19T13:10:49;97896.36;;;37.37;31.81
58919;BME280;44704;50.122;19.932;2022-08-19T13:13:17;97893.61;;;37.36;31.94
58919;BME280;44704;50.122;19.932;2022-08-19T13:15:44;97893.33;;;37.35;31.89
58919;BME280;44704;50.122;19.932;2022-08-19T13:18:12;97894.85;;;37.35;31.09
58919;BME280;44704;50.122;19.932;2022-08-19T13:20:41;97891.59;;;37.36;31.11
58919;BME280;44704;50.122;19.932;2022-08-19T13:23:09;97889.57;;;37.36;31.51
58919;BME280;44704;50.122;19.932;2022-08-19T13:25:36;97887.98;;;37.41;31.59